createdAt,value
2023-05-25T00:01:59.418Z,101096.07
2023-05-25T00:04:30.397Z,101092.20
2023-05-25T00:07:02.281Z,101091.36
2023-05-25T00:09:34.441Z,101088.67
2023-05-25T00:12:07.076Z,101090.36
2023-05-25T00:14:38.888Z,101091.33
2023-05-25T00:17:11.384Z,101088.58
2023-05-25T00:19:44.295Z,101090.92
2023-05-25T00:22:15.922Z,101094.77
2023-05-25T00:24:47.702Z,101096.85
2023-05-25T00:27:19.505Z,101094.23
2023-05-25T00:29:51.158Z,101091.20
2023-05-25T00:32:23.111Z,101093.64
2023-05-25T00:34:55.162Z,101093.43
2023-05-25T00:37:26.935Z,101101.99
2023-05-25T00:39:58.654Z,101103.02
2023-05-25T00:42:33.231Z,101101.45
2023-05-25T00:45:05.273Z,101102.53
2023-05-25T00:47:38.197Z,101110.23
2023-05-25T00:50:17.189Z,101109.65
2023-05-25T00:52:49.905Z,101107.04
2023-05-25T00:55:20.501Z,101105.34
2023-05-25T00:57:56.128Z,101102.00
2023-05-25T01:00:28.864Z,101103.80
2023-05-25T01:03:00.483Z,101105.27
2023-05-25T01:05:35.590Z,101103.20
2023-05-25T01:08:10.062Z,101106.66
2023-05-25T01:10:44.057Z,101108.31
2023-05-25T01:13:18.394Z,101112.20
2023-05-25T01:15:50.976Z,101112.81
2023-05-25T01:18:22.686Z,101115.56
2023-05-25T01:21:13.193Z,101117.73
2023-05-25T01:23:53.756Z,101118.73
2023-05-25T01:26:30.553Z,101120.05
2023-05-25T01:29:05.853Z,101118.73
2023-05-25T01:31:38.564Z,101117.13
2023-05-25T01:34:12.171Z,101124.67
2023-05-25T01:36:45.138Z,101120.70
2023-05-25T01:39:16.873Z,101121.10
2023-05-25T01:41:48.842Z,101119.87
2023-05-25T01:44:21.874Z,101113.59
2023-05-25T01:46:59.777Z,101105.54
2023-05-25T01:49:38.624Z,101117.50
2023-05-25T01:52:20.496Z,101116.23
2023-05-25T01:54:56.229Z,101111.63
2023-05-25T01:57:31.069Z,101116.52
2023-05-25T02:00:04.754Z,101116.11
2023-05-25T02:02:47.734Z,101118.54
2023-05-25T02:05:22.300Z,101115.86
2023-05-25T02:07:55.020Z,101113.17
2023-05-25T02:10:26.803Z,101114.27
2023-05-25T02:12:58.972Z,101110.38
2023-05-25T02:15:34.913Z,101107.13
2023-05-25T02:18:08.613Z,101105.84
2023-05-25T02:20:40.505Z,101109.48
2023-05-25T02:23:12.489Z,101107.17
2023-05-25T02:25:44.536Z,101109.27
2023-05-25T02:28:16.827Z,101111.27
2023-05-25T02:30:48.540Z,101110.63
2023-05-25T02:33:20.299Z,101112.34
2023-05-25T02:35:52.094Z,101117.55
2023-05-25T02:38:24.309Z,101114.95
2023-05-25T02:40:55.976Z,101118.05
2023-05-25T02:43:28.280Z,101120.88
2023-05-25T02:45:59.992Z,101125.88
2023-05-25T02:48:32.154Z,101123.90
2023-05-25T02:51:04.070Z,101123.40
2023-05-25T02:53:36.841Z,101123.65
2023-05-25T02:56:10.741Z,101128.02
2023-05-25T02:58:43.210Z,101123.25
2023-05-25T03:01:19.694Z,101122.05
2023-05-25T03:03:55.656Z,101124.02
2023-05-25T03:06:29.650Z,101128.91
2023-05-25T03:09:06.142Z,101122.30
2023-05-25T03:11:38.009Z,101128.69
2023-05-25T03:14:10.418Z,101122.59
2023-05-25T03:16:43.459Z,101128.13
2023-05-25T03:19:15.401Z,101124.99
2023-05-25T03:21:47.208Z,101126.11
2023-05-25T03:24:19.226Z,101125.96
2023-05-25T03:26:51.614Z,101125.25
2023-05-25T03:29:23.410Z,101123.60
2023-05-25T03:31:55.406Z,101128.20
2023-05-25T03:34:29.536Z,101130.58
2023-05-25T03:37:01.362Z,101132.39
2023-05-25T03:39:33.612Z,101135.45
2023-05-25T03:42:06.408Z,101140.50
2023-05-25T03:44:40.489Z,101145.77
2023-05-25T03:47:13.647Z,101137.74
2023-05-25T03:49:45.510Z,101145.76
2023-05-25T03:52:18.001Z,101150.55
2023-05-25T03:54:50.184Z,101153.54
2023-05-25T03:57:21.982Z,101152.71
2023-05-25T03:59:53.717Z,101153.88
2023-05-25T04:02:25.752Z,101156.06
2023-05-25T04:05:00.358Z,101154.59
2023-05-25T04:07:32.357Z,101159.83
2023-05-25T04:10:04.246Z,101160.48
2023-05-25T04:12:36.331Z,101164.95
2023-05-25T04:15:10.334Z,101164.02
2023-05-25T04:17:55.033Z,101166.21
2023-05-25T04:20:27.231Z,101162.98
2023-05-25T04:22:58.506Z,101166.27
2023-05-25T04:25:32.225Z,101166.14
2023-05-25T04:28:04.203Z,101166.27
2023-05-25T04:30:56.996Z,101167.33
2023-05-25T04:33:52.098Z,101165.52
2023-05-25T04:36:33.167Z,101170.09
2023-05-25T04:39:07.416Z,101171.59
2023-05-25T04:41:43.045Z,101171.89
2023-05-25T04:44:15.632Z,101170.89
2023-05-25T04:46:51.113Z,101173.78
2023-05-25T04:49:28.557Z,101169.45
2023-05-25T04:52:00.419Z,101170.41
2023-05-25T04:54:34.411Z,101167.06
2023-05-25T04:57:07.778Z,101168.05
2023-05-25T04:59:39.545Z,101164.06
2023-05-25T05:02:11.453Z,101160.98
2023-05-25T05:04:43.747Z,101166.53
2023-05-25T05:07:15.583Z,101166.73
2023-05-25T05:09:47.805Z,101170.52
2023-05-25T05:12:19.638Z,101168.68
2023-05-25T05:14:55.994Z,101170.45
2023-05-25T05:17:30.598Z,101168.67
2023-05-25T05:20:02.591Z,101171.84
2023-05-25T05:22:35.408Z,101176.21
2023-05-25T05:25:10.957Z,101170.77
2023-05-25T05:27:42.856Z,101175.73
2023-05-25T05:30:22.327Z,101172.02
2023-05-25T05:32:54.190Z,101172.88
2023-05-25T05:35:28.084Z,101169.86
2023-05-25T05:38:11.150Z,101174.92
2023-05-25T05:40:43.107Z,101180.73
2023-05-25T05:43:15.427Z,101175.88
2023-05-25T05:45:47.792Z,101176.48
2023-05-25T05:48:19.856Z,101175.52
2023-05-25T05:50:52.443Z,101173.27
2023-05-25T05:53:24.547Z,101173.55
2023-05-25T05:55:59.175Z,101171.77
2023-05-25T05:58:32.522Z,101171.71
2023-05-25T06:01:06.340Z,101173.44
2023-05-25T06:03:38.064Z,101175.77
2023-05-25T06:06:10.189Z,101177.66
2023-05-25T06:08:43.337Z,101178.66
2023-05-25T06:11:15.399Z,101186.65
2023-05-25T06:13:48.281Z,101187.83
2023-05-25T06:16:20.769Z,101188.02
2023-05-25T06:18:51.285Z,101184.91
2023-05-25T06:21:23.205Z,101192.16
2023-05-25T06:23:57.800Z,101195.14
2023-05-25T06:26:29.623Z,101196.10
2023-05-25T06:29:01.863Z,101193.14
2023-05-25T06:31:33.796Z,101201.92
2023-05-25T06:34:05.518Z,101207.59
2023-05-25T06:36:37.297Z,101203.73
2023-05-25T06:39:09.526Z,101207.94
2023-05-25T06:41:42.126Z,101208.30
2023-05-25T06:44:13.848Z,101209.29
2023-05-25T06:46:50.897Z,101208.53
2023-05-25T06:49:22.793Z,101208.89
2023-05-25T06:51:54.566Z,101209.41
2023-05-25T06:54:26.816Z,101212.55
2023-05-25T06:56:58.537Z,101216.98
2023-05-25T06:59:31.067Z,101214.21
2023-05-25T07:02:02.895Z,101217.45
2023-05-25T07:04:34.755Z,101212.87
2023-05-25T07:07:07.696Z,101212.11
2023-05-25T07:09:39.799Z,101213.15
2023-05-25T07:12:11.658Z,101206.54
2023-05-25T07:14:43.767Z,101205.06
2023-05-25T07:17:15.633Z,101206.94
2023-05-25T07:19:48.720Z,101208.50
2023-05-25T07:22:20.548Z,101204.13
2023-05-25T07:24:52.575Z,101210.80
2023-05-25T07:27:25.553Z,101201.33
2023-05-25T07:29:57.485Z,101207.95
2023-05-25T07:32:29.328Z,101206.02
2023-05-25T07:35:01.193Z,101208.10
2023-05-25T07:37:32.995Z,101211.58
2023-05-25T07:40:06.171Z,101211.68
2023-05-25T07:42:38.014Z,101207.30
2023-05-25T07:45:12.439Z,101207.52
2023-05-25T07:47:44.231Z,101212.16
2023-05-25T07:50:16.634Z,101212.88
2023-05-25T07:52:49.079Z,101218.41
2023-05-25T07:55:21.260Z,101217.03
2023-05-25T07:57:53.132Z,101222.04
2023-05-25T08:00:25.398Z,101223.13
2023-05-25T08:02:58.340Z,101226.48
2023-05-25T08:05:30.474Z,101226.98
2023-05-25T08:08:02.421Z,101237.67
2023-05-25T08:10:34.862Z,101229.98
2023-05-25T08:13:06.941Z,101223.63
2023-05-25T08:15:38.750Z,101232.45
2023-05-25T08:18:10.514Z,101234.02
2023-05-25T08:20:42.690Z,101236.20
2023-05-25T08:23:14.816Z,101233.77
2023-05-25T08:25:46.902Z,101233.52
2023-05-25T08:28:19.180Z,101233.77
2023-05-25T08:30:51.082Z,101230.64
2023-05-25T08:33:25.147Z,101229.61
2023-05-25T08:35:59.318Z,101226.54
2023-05-25T08:38:31.804Z,101226.95
2023-05-25T08:41:07.308Z,101228.89
2023-05-25T08:43:39.176Z,101231.94
2023-05-25T08:46:11.309Z,101230.42
2023-05-25T08:48:44.915Z,101234.90
2023-05-25T08:51:18.894Z,101230.26
2023-05-25T08:53:51.727Z,101230.52
2023-05-25T08:56:28.119Z,101230.48
2023-05-25T08:59:10.085Z,101229.70
2023-05-25T09:01:47.100Z,101233.88
2023-05-25T09:04:19.587Z,101237.84
2023-05-25T09:07:05.691Z,101237.39
2023-05-25T09:09:42.904Z,101235.58
2023-05-25T09:12:15.184Z,101233.98
2023-05-25T09:14:48.061Z,101241.02
2023-05-25T09:17:21.169Z,101238.86
2023-05-25T09:19:51.769Z,101235.60
2023-05-25T09:22:23.674Z,101235.66
2023-05-25T09:24:56.025Z,101240.56
2023-05-25T09:27:28.398Z,101241.38
2023-05-25T09:30:01.902Z,101241.84
2023-05-25T09:32:33.809Z,101245.42
2023-05-25T09:35:11.965Z,101246.27
2023-05-25T09:37:45.721Z,101241.77
2023-05-25T09:40:18.309Z,101241.66
2023-05-25T09:42:51.011Z,101241.04
2023-05-25T09:45:21.451Z,101236.91
2023-05-25T09:47:57.001Z,101244.79
2023-05-25T09:50:30.096Z,101245.34
2023-05-25T09:53:03.525Z,101254.61
2023-05-25T09:55:51.524Z,101255.05
2023-05-25T09:58:27.517Z,101249.91
2023-05-25T10:00:59.387Z,101253.14
2023-05-25T10:03:31.451Z,101253.27
2023-05-25T10:06:04.463Z,101252.23
2023-05-25T10:08:36.383Z,101253.06
2023-05-25T10:11:08.773Z,101256.30
2023-05-25T10:13:41.658Z,101254.27
2023-05-25T10:16:17.660Z,101250.23
2023-05-25T10:18:56.326Z,101253.50
2023-05-25T10:21:30.010Z,101256.36
2023-05-25T10:24:07.543Z,101254.98
2023-05-25T10:26:48.446Z,101254.09
2023-05-25T10:29:21.496Z,101258.13
2023-05-25T10:31:54.437Z,101259.14
2023-05-25T10:34:27.085Z,101261.79
2023-05-25T10:37:00.288Z,101255.39
2023-05-25T10:39:33.133Z,101266.70
2023-05-25T10:42:06.734Z,101265.81
2023-05-25T10:44:39.259Z,101257.14
2023-05-25T10:47:10.293Z,101262.84
2023-05-25T10:49:56.381Z,101262.20
2023-05-25T10:52:31.884Z,101263.25
2023-05-25T10:55:05.378Z,101260.36
2023-05-25T10:57:37.185Z,101261.61
2023-05-25T11:00:14.676Z,101262.16
2023-05-25T11:02:55.732Z,101255.94
2023-05-25T11:05:36.652Z,101257.50
2023-05-25T11:08:12.109Z,101257.00
2023-05-25T11:11:00.655Z,101254.36
2023-05-25T11:13:45.240Z,101253.52
2023-05-25T11:16:22.154Z,101252.90
2023-05-25T11:18:57.706Z,101251.47
2023-05-25T11:21:46.245Z,101252.19
2023-05-25T11:24:21.363Z,101249.64
2023-05-25T11:26:58.577Z,101249.84
2023-05-25T11:29:36.167Z,101250.50
2023-05-25T11:32:13.222Z,101242.55
2023-05-25T11:34:46.579Z,101240.67
2023-05-25T11:37:21.616Z,101243.28
2023-05-25T11:39:54.044Z,101237.79
2023-05-25T11:42:27.798Z,101237.84
2023-05-25T11:45:02.835Z,101235.27
2023-05-25T11:47:35.800Z,101236.86
2023-05-25T11:50:16.054Z,101230.97
2023-05-25T11:52:48.026Z,101228.48
2023-05-25T11:55:19.893Z,101226.39
2023-05-25T11:57:58.751Z,101224.53
2023-05-25T12:00:31.494Z,101226.77
2023-05-25T12:03:03.857Z,101229.02
2023-05-25T12:05:42.209Z,101226.62
2023-05-25T12:08:14.160Z,101220.92
2023-05-25T12:10:55.795Z,101219.42
2023-05-25T12:13:27.963Z,101217.91
2023-05-25T12:16:00.500Z,101217.96
2023-05-25T12:18:32.992Z,101218.09
2023-05-25T12:21:08.210Z,101212.44
2023-05-25T12:23:40.236Z,101211.10
2023-05-25T12:26:13.897Z,101216.66
2023-05-25T12:29:02.860Z,101211.84
2023-05-25T12:31:35.748Z,101212.88
2023-05-25T12:34:12.716Z,101216.90
2023-05-25T12:36:47.921Z,101212.94
2023-05-25T12:39:32.456Z,101212.02
2023-05-25T12:42:04.949Z,101206.02
2023-05-25T12:44:38.059Z,101210.98
2023-05-25T12:47:19.606Z,101205.89
2023-05-25T12:49:53.365Z,101204.36
2023-05-25T12:52:38.619Z,101201.89
2023-05-25T12:55:27.162Z,101199.48
2023-05-25T12:58:01.584Z,101198.84
2023-05-25T13:00:37.716Z,101200.06
2023-05-25T13:03:09.847Z,101192.77
2023-05-25T13:05:42.375Z,101193.94
2023-05-25T13:08:15.689Z,101193.58
2023-05-25T13:10:51.452Z,101190.13
2023-05-25T13:13:23.383Z,101194.20
2023-05-25T13:15:55.478Z,101193.25
2023-05-25T13:18:27.499Z,101196.16
2023-05-25T13:20:59.684Z,101186.95
2023-05-25T13:23:32.116Z,101188.38
2023-05-25T13:26:04.259Z,101184.77
2023-05-25T13:28:36.746Z,101182.73
2023-05-25T13:31:08.554Z,101179.55
2023-05-25T13:33:40.444Z,101180.55
2023-05-25T13:36:12.556Z,101184.09
2023-05-25T13:38:45.190Z,101179.98
2023-05-25T13:41:16.576Z,101177.03
2023-05-25T13:43:48.896Z,101174.98
2023-05-25T13:46:33.641Z,101172.36
2023-05-25T13:49:06.622Z,101170.09
2023-05-25T13:51:38.630Z,101170.33
2023-05-25T13:54:12.871Z,101169.56
2023-05-25T13:56:44.971Z,101164.84
2023-05-25T13:59:16.824Z,101159.68
2023-05-25T14:01:48.786Z,101151.66
2023-05-25T14:04:21.167Z,101155.21
2023-05-25T14:06:53.040Z,101152.69
2023-05-25T14:09:24.804Z,101148.17
2023-05-25T14:11:57.137Z,101142.20
2023-05-25T14:14:32.153Z,101140.36
2023-05-25T14:17:04.885Z,101135.61
2023-05-25T14:19:37.090Z,101133.17
2023-05-25T14:22:13.775Z,101136.24
2023-05-25T14:24:46.593Z,101140.84
2023-05-25T14:27:21.240Z,101139.48
2023-05-25T14:29:53.752Z,101131.94
2023-05-25T14:32:25.893Z,101134.71
2023-05-25T14:34:58.306Z,101133.36
2023-05-25T14:37:30.299Z,101135.22
2023-05-25T14:40:02.128Z,101128.20
2023-05-25T14:42:34.139Z,101122.37
2023-05-25T14:45:08.690Z,101122.40
2023-05-25T14:47:42.966Z,101125.53
2023-05-25T14:50:14.972Z,101121.63
2023-05-25T14:52:47.093Z,101120.64
2023-05-25T14:55:18.950Z,101119.73
2023-05-25T14:57:50.780Z,101122.90
2023-05-25T15:00:23.038Z,101118.61
2023-05-25T15:02:54.908Z,101114.50
2023-05-25T15:05:26.829Z,101123.27
2023-05-25T15:07:59.034Z,101115.45
2023-05-25T15:10:30.755Z,101115.50
2023-05-25T15:13:02.566Z,101112.01
2023-05-25T15:15:34.926Z,101109.79
2023-05-25T15:18:07.352Z,101110.73
2023-05-25T15:20:42.041Z,101108.96
2023-05-25T15:23:14.931Z,101110.04
2023-05-25T15:25:45.208Z,101107.80
2023-05-25T15:28:17.983Z,101108.23
2023-05-25T15:30:50.468Z,101107.84
2023-05-25T15:33:22.089Z,101111.04
2023-05-25T15:35:56.034Z,101108.98
2023-05-25T15:38:28.584Z,101110.73
2023-05-25T15:41:00.562Z,101111.38
2023-05-25T15:43:32.424Z,101104.14
2023-05-25T15:46:04.470Z,101106.38
2023-05-25T15:48:36.450Z,101100.80
2023-05-25T15:51:08.431Z,101100.42
2023-05-25T15:53:41.743Z,101101.70
2023-05-25T15:56:14.171Z,101100.81
2023-05-25T15:58:48.742Z,101091.08
2023-05-25T16:01:20.603Z,101096.28
2023-05-25T16:03:52.500Z,101096.77
2023-05-25T16:06:25.195Z,101098.46
2023-05-25T16:08:59.882Z,101094.61
2023-05-25T16:11:34.357Z,101097.45
2023-05-25T16:14:06.225Z,101096.73
2023-05-25T16:16:38.512Z,101098.93
2023-05-25T16:19:09.356Z,101099.51
2023-05-25T16:21:42.657Z,101094.12
2023-05-25T16:24:14.588Z,101094.38
2023-05-25T16:26:46.457Z,101093.89
2023-05-25T16:29:18.708Z,101094.70
2023-05-25T16:31:50.987Z,101096.16
2023-05-25T16:34:23.151Z,101096.34
2023-05-25T16:36:54.944Z,101093.86
2023-05-25T16:39:27.152Z,101086.17
2023-05-25T16:41:59.187Z,101082.61
2023-05-25T16:44:31.652Z,101081.13
2023-05-25T16:47:03.462Z,101084.71
2023-05-25T16:49:35.537Z,101084.63
2023-05-25T16:52:08.077Z,101087.17
2023-05-25T16:54:40.355Z,101084.48
2023-05-25T16:57:12.518Z,101087.35
2023-05-25T16:59:43.145Z,101087.98
2023-05-25T17:02:14.851Z,101082.73
2023-05-25T17:04:47.282Z,101082.09
2023-05-25T17:07:19.701Z,101077.67
2023-05-25T17:09:51.806Z,101080.19
2023-05-25T17:12:24.176Z,101074.69
2023-05-25T17:14:56.408Z,101069.75
2023-05-25T17:17:28.911Z,101072.14
2023-05-25T17:20:01.342Z,101069.54
2023-05-25T17:22:33.968Z,101069.46
2023-05-25T17:25:07.407Z,101071.50
2023-05-25T17:27:39.210Z,101076.70
2023-05-25T17:30:14.070Z,101075.71
2023-05-25T17:32:46.087Z,101076.41
2023-05-25T17:35:18.844Z,101075.00
2023-05-25T17:37:50.952Z,101074.17
2023-05-25T17:40:23.059Z,101080.52
2023-05-25T17:42:55.415Z,101086.52
2023-05-25T17:45:27.919Z,101081.23
2023-05-25T17:48:01.194Z,101083.30
2023-05-25T17:50:33.455Z,101085.47
2023-05-25T17:53:05.398Z,101080.16
2023-05-25T17:55:37.545Z,101085.14
2023-05-25T17:58:09.391Z,101081.70
2023-05-25T18:00:40.690Z,101081.11
2023-05-25T18:03:12.591Z,101081.23
2023-05-25T18:05:45.109Z,101080.05
2023-05-25T18:08:17.229Z,101075.89
2023-05-25T18:10:50.296Z,101081.12
2023-05-25T18:13:22.672Z,101084.15
2023-05-25T18:15:54.713Z,101079.14
2023-05-25T18:18:29.116Z,101081.08
2023-05-25T18:21:00.963Z,101084.27
2023-05-25T18:23:32.853Z,101086.48
2023-05-25T18:26:05.782Z,101093.21
2023-05-25T18:28:37.890Z,101098.98
2023-05-25T18:31:09.779Z,101100.15
2023-05-25T18:33:42.207Z,101101.34
2023-05-25T18:36:15.244Z,101103.30
2023-05-25T18:38:47.544Z,101105.33
2023-05-25T18:41:21.455Z,101106.36
2023-05-25T18:43:55.432Z,101110.54
2023-05-25T18:46:28.587Z,101114.32
2023-05-25T18:49:00.778Z,101113.48
2023-05-25T18:51:33.804Z,101116.73
2023-05-25T18:54:05.929Z,101114.29
2023-05-25T18:56:39.413Z,101116.23
2023-05-25T18:59:10.080Z,101119.02
2023-05-25T19:01:42.499Z,101126.37
2023-05-25T19:04:15.873Z,101125.92
2023-05-25T19:06:48.713Z,101127.86
2023-05-25T19:09:22.041Z,101128.95
2023-05-25T19:11:54.357Z,101133.91
2023-05-25T19:14:27.402Z,101133.84
2023-05-25T19:16:59.898Z,101134.71
2023-05-25T19:19:32.431Z,101140.52
2023-05-25T19:22:06.559Z,101144.81
2023-05-25T19:24:42.300Z,101148.31
2023-05-25T19:27:15.559Z,101152.02
2023-05-25T19:29:47.873Z,101151.01
2023-05-25T19:32:21.470Z,101150.92
2023-05-25T19:34:55.090Z,101152.88
2023-05-25T19:37:27.975Z,101152.59
2023-05-25T19:40:00.208Z,101157.42
2023-05-25T19:42:33.559Z,101157.36
2023-05-25T19:45:06.933Z,101158.64
2023-05-25T19:47:39.422Z,101162.26
2023-05-25T19:50:12.029Z,101161.73
2023-05-25T19:52:44.281Z,101165.00
2023-05-25T19:55:15.258Z,101167.13
2023-05-25T19:57:47.362Z,101168.63
2023-05-25T20:00:25.975Z,101169.87
2023-05-25T20:03:00.180Z,101171.07
2023-05-25T20:05:33.193Z,101177.45
2023-05-25T20:08:06.843Z,101171.45
2023-05-25T20:10:40.608Z,101175.76
2023-05-25T20:13:11.334Z,101174.79
2023-05-25T20:15:44.144Z,101176.92
2023-05-25T20:18:18.403Z,101180.76
2023-05-25T20:20:50.906Z,101187.38
2023-05-25T20:23:23.049Z,101187.78
2023-05-25T20:25:55.004Z,101191.61
2023-05-25T20:28:27.754Z,101193.81
2023-05-25T20:30:59.903Z,101194.32
2023-05-25T20:33:32.076Z,101187.35
2023-05-25T20:36:04.011Z,101195.31
2023-05-25T20:38:36.109Z,101196.29
2023-05-25T20:41:08.367Z,101195.46
2023-05-25T20:43:40.837Z,101203.77
2023-05-25T20:46:14.237Z,101205.16
2023-05-25T20:48:47.674Z,101204.95
2023-05-25T20:51:19.403Z,101207.07
2023-05-25T20:53:51.366Z,101203.87
2023-05-25T20:56:22.857Z,101205.79
2023-05-25T20:58:54.741Z,101206.86
2023-05-25T21:01:26.559Z,101205.65
2023-05-25T21:03:59.420Z,101206.12
2023-05-25T21:06:32.409Z,101211.61
2023-05-25T21:09:03.210Z,101213.42
2023-05-25T21:11:36.107Z,101214.63
2023-05-25T21:14:08.292Z,101220.46
2023-05-25T21:16:40.207Z,101219.89
2023-05-25T21:19:12.603Z,101215.86
2023-05-25T21:21:44.769Z,101222.30
2023-05-25T21:24:16.936Z,101223.72
2023-05-25T21:26:48.791Z,101229.83
2023-05-25T21:29:21.575Z,101229.23
2023-05-25T21:31:53.447Z,101228.14
2023-05-25T21:34:25.435Z,101231.13
2023-05-25T21:36:58.086Z,101233.93
2023-05-25T21:39:29.853Z,101233.89
2023-05-25T21:42:02.347Z,101234.24
2023-05-25T21:44:34.157Z,101237.14
2023-05-25T21:47:06.076Z,101238.38
2023-05-25T21:49:37.856Z,101239.40
2023-05-25T21:52:23.290Z,101240.13
2023-05-25T21:54:55.459Z,101241.60
2023-05-25T21:57:27.139Z,101244.14
2023-05-25T21:59:58.887Z,101245.61
2023-05-25T22:02:31.215Z,101248.85
2023-05-25T22:05:06.476Z,101250.35
2023-05-25T22:07:38.146Z,101248.69
2023-05-25T22:10:11.798Z,101248.73
2023-05-25T22:12:44.288Z,101242.73
2023-05-25T22:15:15.976Z,101241.85
2023-05-25T22:17:47.604Z,101242.08
2023-05-25T22:20:20.243Z,101244.27
2023-05-25T22:22:52.152Z,101241.39
2023-05-25T22:25:24.319Z,101244.45
2023-05-25T22:27:56.492Z,101251.86
2023-05-25T22:30:28.304Z,101257.98
2023-05-25T22:33:00.113Z,101256.62
2023-05-25T22:35:32.433Z,101256.90
2023-05-25T22:38:04.458Z,101255.36
2023-05-25T22:40:36.170Z,101256.36
2023-05-25T22:43:12.814Z,101259.28
2023-05-25T22:45:45.263Z,101261.27
2023-05-25T22:48:15.803Z,101261.64
2023-05-25T22:50:47.577Z,101263.86
2023-05-25T22:53:19.318Z,101264.92
2023-05-25T22:55:51.263Z,101261.39
2023-05-25T22:58:23.648Z,101265.35
2023-05-25T23:00:56.227Z,101267.77
2023-05-25T23:03:28.531Z,101273.07
2023-05-25T23:06:00.520Z,101270.29
2023-05-25T23:08:32.268Z,101268.29
2023-05-25T23:11:04.013Z,101272.45
2023-05-25T23:13:35.923Z,101272.89
2023-05-25T23:16:08.309Z,101267.74
2023-05-25T23:18:40.070Z,101270.24
2023-05-25T23:21:11.872Z,101272.46
2023-05-25T23:23:43.704Z,101272.95
2023-05-25T23:26:15.621Z,101273.58
2023-05-25T23:28:47.507Z,101274.84
2023-05-25T23:31:19.451Z,101275.91
2023-05-25T23:33:51.165Z,101271.83
2023-05-25T23:36:26.248Z,101276.67
2023-05-25T23:38:58.185Z,101279.61
2023-05-25T23:41:29.903Z,101277.05
2023-05-25T23:44:01.948Z,101279.97
2023-05-25T23:46:33.679Z,101279.75
2023-05-25T23:49:05.527Z,101279.75
2023-05-25T23:51:37.459Z,101277.55
2023-05-25T23:54:09.156Z,101277.34
2023-05-25T23:56:40.904Z,101274.42
2023-05-25T23:59:15.348Z,101274.81
